Plymouth, NH

11:29 PM EST on February 19, 2018 (GMT -0500)
Plymouth

Weather History for K1P1 - April, 2014

Change the Weather History Date:

Wednesday, April 16, 2014

  Actual Average (KLCI) Record (KLCI)
Temperature  
Mean Temperature 30 °F -  
Max Temperature 35 °F 55 °F 87 °F (2012)
Min Temperature 24 °F 33 °F 24 °F (1992)
Degree Days  
Heating Degree Days 36    
Moisture  
Dew Point 18 °F    
Average Humidity 64    
Maximum Humidity 95    
Minimum Humidity 42    
Precipitation  
Precipitation 0.01 in - - ()
Sea Level Pressure  
Sea Level Pressure 30.23 in    
Wind  
Wind Speed 11 mph (NW)    
Max Wind Speed 21 mph    
Max Gust Speed 29 mph    
Visibility 9 miles    
Events Snow    
Averages and records for this station are not official NWS values.
T = Trace of Precipitation, MM = Missing Value Source: NWS Daily Summary

Daily Weather History Graph

Daily Weather History Graph

Search for Another Location

Airport or City:

Trip Planner

Search our weather history database for the weather conditions in past years. The results will help you decide how hot, cold, wet, or windy it might be!

Date:

Astronomy

Apr. 16, 2014 Rise Set
Actual Time 6:02 AM EDT 7:31 PM EDT
Civil Twilight 5:32 AM EDT 8:01 PM EDT
Nautical Twilight 4:56 AM EDT 8:38 PM EDT
Astronomical Twilight 4:17 AM EDT 9:17 PM EDT
Moon 9:15 PM EDT (4/16) 6:45 AM EDT (4/16)
Length of Visible Light 14h 29m
Length of Day
13h 29m
Full, 98% of the Moon is Illuminated
Apr 16
Full
Apr 22
Last Quarter
Apr 29
New
May 6
First Quarter
May 14
Full

Hourly Weather History & Observations

Time (EDT) Temp. Windchill Dew Point Humidity Pressure Visibility Wind Dir Wind Speed Gust Speed Precip Events Conditions
12:15 AM 35.4 °F 28.4 °F 32.9 °F 91% 29.76 in 5.0 mi WNW 9.2 mph - N/A Snow Light Snow
12:35 AM 34.5 °F 28.6 °F 32.2 °F 91% 29.75 in 3.0 mi NW 6.9 mph - N/A Snow Light Snow
12:55 AM 33.8 °F 27.7 °F 32.2 °F 94% 29.76 in 1.8 mi WNW 6.9 mph - 0.01 in Snow Light Snow
1:15 AM 33.4 °F 27.3 °F 32.2 °F 95% 29.77 in 3.0 mi WNW 6.9 mph - N/A Snow Light Snow
1:35 AM 33.1 °F 23.9 °F 31.8 °F 95% 29.79 in 1.5 mi WNW 12.7 mph 17.3 mph N/A Snow Light Snow
1:55 AM 32.2 °F 25.8 °F 30.2 °F 92% 29.79 in 2.5 mi WNW 6.9 mph - N/A Snow Light Snow
2:15 AM 31.6 °F 22.6 °F 29.1 °F 90% 29.82 in 1.8 mi West 11.5 mph - N/A Snow Light Snow
2:35 AM 30.2 °F 19.3 °F 28.2 °F 92% 29.82 in 1.5 mi WNW 15.0 mph 18.4 mph N/A Snow Light Snow
2:55 AM 29.8 °F 20.9 °F 25.9 °F 85% 29.85 in 5.0 mi WNW 10.4 mph 24.2 mph N/A Snow Light Snow
3:15 AM 29.7 °F 20.1 °F 24.8 °F 82% 29.87 in 10.0 mi WNW 11.5 mph 19.6 mph N/A   Unknown
3:35 AM 28.8 °F 15.9 °F 22.3 °F 77% 29.86 in 10.0 mi NW 19.6 mph 26.5 mph N/A   Unknown
3:55 AM 28.2 °F 19.5 °F 22.6 °F 80% 29.87 in 10.0 mi NW 9.2 mph 23.0 mph N/A   Unknown
4:15 AM 27.7 °F 17.6 °F 22.1 °F 80% 29.88 in 10.0 mi NW 11.5 mph 20.7 mph N/A   Unknown
4:35 AM 27.5 °F 16.8 °F 21.6 °F 78% 29.90 in 10.0 mi NW 12.7 mph 20.7 mph N/A   Unknown
4:55 AM 27.0 °F 16.1 °F 21.2 °F 79% 29.88 in 10.0 mi NW 12.7 mph 20.7 mph N/A   Unknown
5:15 AM 26.6 °F 13.8 °F 20.1 °F 77% 29.93 in 10.0 mi NW 17.3 mph 26.5 mph N/A Snow Light Snow
5:35 AM 25.9 °F 12.9 °F 18.9 °F 75% 29.96 in 10.0 mi NW 17.3 mph 27.6 mph N/A Snow Light Snow
5:55 AM 25.5 °F 13.8 °F 19.4 °F 78% 30.01 in 10.0 mi WNW 13.8 mph 20.7 mph N/A Snow Light Snow
6:15 AM 25.2 °F 11.6 °F 18.3 °F 75% 30.00 in 10.0 mi WNW 18.4 mph 26.5 mph N/A Snow Light Snow
6:35 AM 24.8 °F 10.7 °F 16.3 °F 70% 30.00 in 10.0 mi NW 19.6 mph 28.8 mph N/A   Unknown
6:55 AM 24.6 °F 13.8 °F 16.5 °F 71% 30.05 in 10.0 mi WNW 11.5 mph 19.6 mph N/A   Unknown
7:15 AM 24.6 °F 12.2 °F 15.8 °F 69% 30.07 in 10.0 mi WNW 15.0 mph 24.2 mph N/A   Unknown
7:35 AM 24.6 °F 11.3 °F 16.2 °F 70% 30.10 in 10.0 mi WNW 17.3 mph 27.6 mph N/A   Unknown
7:55 AM 24.8 °F 10.3 °F 15.8 °F 69% 30.12 in 10.0 mi NW 20.7 mph 28.8 mph N/A   Unknown
8:15 AM 25.3 °F 11.8 °F 16.7 °F 70% 30.14 in 7.0 mi WNW 18.4 mph 24.2 mph N/A Snow Light Snow
8:35 AM 25.7 °F 11.9 °F 16.5 °F 68% 30.15 in 10.0 mi WNW 19.6 mph 28.8 mph N/A Snow Light Snow
8:55 AM 25.9 °F 16.6 °F 17.8 °F 71% 30.17 in 10.0 mi West 9.2 mph 18.4 mph N/A Snow Light Snow
9:15 AM 25.9 °F 15.3 °F 15.1 °F 64% 30.19 in 10.0 mi WNW 11.5 mph 27.6 mph N/A   Unknown
9:35 AM 26.4 °F 12.8 °F 15.1 °F 62% 30.21 in 10.0 mi NW 19.6 mph 28.8 mph N/A   Unknown
9:55 AM 27.0 °F 14.7 °F 14.4 °F 59% 30.24 in 10.0 mi WNW 16.1 mph 24.2 mph N/A   Unknown
10:15 AM 26.6 °F 13.1 °F 13.3 °F 57% 30.24 in 10.0 mi NNW 19.6 mph 27.6 mph N/A   Unknown
10:35 AM 27.3 °F 14.8 °F 14.7 °F 59% 30.26 in 10.0 mi NW 17.3 mph 25.3 mph N/A   Unknown
10:55 AM 27.5 °F 15.9 °F 14.9 °F 59% 30.27 in 10.0 mi West 15.0 mph 23.0 mph N/A   Unknown
11:15 AM 28.4 °F 15.4 °F 15.1 °F 57% 30.28 in 10.0 mi NW 19.6 mph 27.6 mph N/A   Unknown
11:35 AM 28.2 °F 17.2 °F 13.8 °F 55% 30.29 in 10.0 mi WNW 13.8 mph 27.6 mph N/A   Unknown
12:15 PM 30.2 °F 19.3 °F 16.5 °F 57% 30.31 in 10.0 mi NW 15.0 mph 20.7 mph N/A   Unknown
12:35 PM 30.4 °F 19.5 °F 16.7 °F 57% 30.33 in 10.0 mi NW 15.0 mph 21.9 mph N/A   Unknown
12:55 PM 30.7 °F 22.0 °F 16.5 °F 56% 30.34 in 10.0 mi West 10.4 mph 24.2 mph N/A   Unknown
1:15 PM 32.0 °F 24.2 °F 18.3 °F 57% 30.36 in 10.0 mi WNW 9.2 mph 19.6 mph N/A   Unknown
1:35 PM 32.0 °F 22.5 °F 17.6 °F 55% 30.36 in 10.0 mi WNW 12.7 mph 19.6 mph N/A   Unknown
2:15 PM 32.0 °F 22.5 °F 15.8 °F 51% 30.38 in 10.0 mi NW 12.7 mph 20.7 mph N/A   Unknown
2:35 PM 32.4 °F 23.0 °F 16.3 °F 52% 30.37 in 10.0 mi WNW 12.7 mph 23.0 mph N/A   Unknown
2:55 PM 33.1 °F 23.4 °F 16.2 °F 50% 30.39 in 10.0 mi WNW 13.8 mph 21.9 mph N/A   Unknown
3:15 PM 33.1 °F 22.6 °F 15.8 °F 49% 30.39 in 10.0 mi NW 16.1 mph 21.9 mph N/A   Unknown
3:35 PM 32.9 °F 27.5 °F 15.6 °F 49% 30.39 in 10.0 mi NW 5.8 mph 19.6 mph N/A   Unknown
3:55 PM 34.0 °F 26.0 °F 15.4 °F 47% 30.41 in 10.0 mi NW 10.4 mph - N/A   Unknown
4:15 PM 34.0 °F 27.2 °F 12.9 °F 42% 30.42 in 10.0 mi WNW 8.1 mph 17.3 mph N/A   Unknown
4:35 PM 34.0 °F 26.6 °F 13.6 °F 43% 30.42 in 10.0 mi NW 9.2 mph 20.7 mph N/A   Unknown
4:55 PM 34.3 °F 25.9 °F 15.3 °F 46% 30.43 in 10.0 mi NNW 11.5 mph 19.6 mph N/A   Unknown
5:15 PM 34.5 °F 26.2 °F 13.6 °F 42% 30.44 in 10.0 mi NW 11.5 mph 20.7 mph N/A   Unknown
5:35 PM 34.5 °F 27.3 °F 13.8 °F 43% 30.45 in 10.0 mi NNW 9.2 mph - N/A   Unknown
5:55 PM 34.2 °F 25.7 °F 13.3 °F 42% 30.45 in 10.0 mi NW 11.5 mph 16.1 mph N/A   Unknown
6:15 PM 33.8 °F 26.4 °F 13.1 °F 43% 30.45 in 10.0 mi NNW 9.2 mph - N/A   Unknown
6:35 PM 33.8 °F 27.7 °F 13.6 °F 44% 30.46 in 10.0 mi NNW 6.9 mph - N/A   Unknown
6:55 PM 33.3 °F 25.7 °F 12.4 °F 42% 30.47 in 10.0 mi NW 9.2 mph - N/A   Unknown
7:15 PM 32.9 °F 26.7 °F 14.0 °F 46% 30.49 in 10.0 mi NNW 6.9 mph - N/A   Unknown
7:55 PM 31.6 °F 27.0 °F 12.9 °F 46% 30.51 in 10.0 mi North 4.6 mph - N/A   Unknown
8:15 PM 31.1 °F 25.4 °F 13.1 °F 47% 30.52 in 10.0 mi NW 5.8 mph - N/A   Unknown
8:35 PM 30.9 °F 25.2 °F 15.3 °F 52% 30.54 in 10.0 mi NW 5.8 mph - N/A   Unknown
8:55 PM 30.7 °F 27.3 °F 15.3 °F 53% 30.54 in 10.0 mi NW 3.5 mph - N/A   Unknown
9:15 PM 30.0 °F 26.5 °F 15.1 °F 54% 30.56 in 10.0 mi NW 3.5 mph - N/A   Unknown
9:35 PM 29.7 °F - 15.4 °F 55% 30.57 in 10.0 mi Calm Calm - N/A   Unknown
9:55 PM 29.1 °F - 16.2 °F 58% 30.58 in 10.0 mi Calm Calm - N/A   Unknown
10:15 PM 28.8 °F - 12.7 °F 51% 30.58 in 10.0 mi Calm Calm - N/A   Unknown
10:35 PM 27.5 °F - 16.7 °F 64% 30.59 in 10.0 mi Calm Calm - N/A   Unknown
10:55 PM 26.6 °F - 19.9 °F 76% 30.59 in 10.0 mi Calm Calm - N/A   Unknown
11:15 PM 26.6 °F 22.6 °F 19.8 °F 75% 30.60 in 10.0 mi WNW 3.5 mph - N/A   Unknown
11:35 PM 25.9 °F - 19.0 °F 75% 30.61 in 10.0 mi Calm Calm - N/A   Unknown